Time;durP1;ratioP1;P1;durP2;ratioP2;P2;SDS_P1;SDS_P2;PMS_P1;PMS_P2;Temp;Humidity;BMP_temperature;BMP_pressure;BME280_temperature;BME280_humidity;BME280_pressure;Samples;Min_cycle;Max_cycle;Signal;HPM_P1;HPM_P2
2023/11/18 00:00:11;;;;;;;;;;;;;;;-144.99;100.00;52562.25;5042283;28;19964;-72
2023/11/18 00:02:38;;;;;;;;;;;;;;;-144.99;100.00;52580.59;5042016;28;19976;-72
2023/11/18 00:05:07;;;;;;;;;;;;;;;-144.99;100.00;52582.63;5042455;28;19971;-74
2023/11/18 00:07:33;;;;;;;;;;;;;;;-144.99;100.00;52578.53;5046364;28;19954;-73
2023/11/18 00:10:00;;;;;;;;;;;;;;;-144.99;100.00;52558.16;5034532;28;19929;-72
2023/11/18 00:12:26;;;;;;;;;;;;;;;-144.99;100.00;52554.09;5047256;28;19925;-73
2023/11/18 00:14:54;;;;;;;;;;;;;;;-144.99;100.00;52566.31;4686774;28;10000086;-73
2023/11/18 00:17:22;;;;;;;;;;;;;;;-144.99;100.00;52574.47;5047203;28;19968;-73
2023/11/18 00:19:48;;;;;;;;;;;;;;;-144.99;100.00;52574.47;5045175;28;20375;-71
2023/11/18 00:22:15;;;;;;;;;;;;;;;-144.99;100.00;52615.25;5039769;28;20002;-64
2023/11/18 00:24:41;;;;;;;;;;;;;;;-144.99;100.00;52582.63;5043962;28;20134;-64
2023/11/18 00:27:08;;;;;;;;;;;;;;;-144.99;100.00;52576.50;5048755;28;19970;-64
2023/11/18 00:29:34;;;;;;;;;;;;;;;-144.99;100.00;52598.94;5041277;28;20019;-64
2023/11/18 00:32:02;;;;;;;;;;;;;;;-144.99;100.00;52598.94;5042422;28;19972;-64
2023/11/18 00:34:29;;;;;;;;;;;;;;;-144.99;100.00;52562.25;5045208;28;20296;-64
2023/11/18 00:36:57;;;;;;;;;;;;;;;-144.99;100.00;52631.53;5038575;28;20136;-66
2023/11/18 00:39:23;;;;;;;;;;;;;;;-144.99;100.00;52550.00;5047229;28;19932;-74
2023/11/18 00:41:50;;;;;;;;;;;;;;;-144.99;100.00;52582.63;5039886;28;19988;-78
2023/11/18 00:44:16;;;;;;;;;;;;;;;-144.99;100.00;52533.69;5048740;28;19964;-70
2023/11/18 00:46:43;;;;;;;;;;;;;;;-144.99;100.00;52574.47;5047456;28;20015;-70
2023/11/18 00:49:11;;;;;;;;;;;;;;;-144.99;100.00;52580.59;5039294;28;20366;-72
2023/11/18 00:51:38;;;;;;;;;;;;;;;-144.99;100.00;52584.66;5045682;28;20447;-73
2023/11/18 00:54:05;;;;;;;;;;;;;;;-144.99;100.00;52519.44;5045702;28;19998;-72
2023/11/18 00:56:32;;;;;;;;;;;;;;;-144.99;100.00;52615.25;5042340;28;20078;-73
2023/11/18 00:58:58;;;;;;;;;;;;;;;-144.99;100.00;52611.16;5040559;28;19925;-72
2023/11/18 01:01:25;;;;;;;;;;;;;;;-144.99;100.00;52578.53;5059575;22;19929;-74
2023/11/18 01:03:52;;;;;;;;;;;;;;;-144.99;100.00;52570.38;5045353;28;19936;-74
2023/11/18 01:06:19;;;;;;;;;;;;;;;-144.99;100.00;52584.66;5006626;28;19936;-75
2023/11/18 01:08:46;;;;;;;;;;;;;;;-144.99;100.00;52588.75;5009689;28;19956;-74
2023/11/18 01:11:18;;;;;;;;;;;;;;;-144.99;100.00;52590.78;5009492;28;19930;-75
2023/11/18 01:13:45;;;;;;;;;;;;;;;-144.99;100.00;52603.00;5010506;28;20402;-75
2023/11/18 01:16:13;;;;;;;;;;;;;;;-144.99;100.00;52582.63;5002276;28;20027;-75
2023/11/18 01:18:40;;;;;;;;;;;;;;;-144.99;100.00;52588.75;5009721;28;19926;-75
2023/11/18 01:21:08;;;;;;;;;;;;;;;-144.99;100.00;52578.53;5010320;28;20052;-74
2023/11/18 01:23:37;;;;;;;;;;;;;;;-144.99;100.00;52574.47;5007116;28;19926;-72
2023/11/18 01:26:04;;;;;;;;;;;;;;;-144.99;100.00;52570.38;4998150;28;20364;-68
2023/11/18 01:28:32;;;;;;;;;;;;;;;-144.99;100.00;52537.78;5010207;28;20497;-68
2023/11/18 01:30:59;;;;;;;;;;;;;;;-144.99;100.00;52584.66;5008086;28;19936;-68
2023/11/18 01:33:26;;;;;;;;;;;;;;;-144.99;100.00;52570.38;5006357;28;20368;-71
2023/11/18 01:35:53;;;;;;;;;;;;;;;-144.99;100.00;52607.09;5000842;28;20296;-74
2023/11/18 01:38:20;;;;;;;;;;;;;;;-144.99;100.00;52552.03;5001437;28;19926;-72
2023/11/18 01:40:48;;;;;;;;;;;;;;;-144.99;100.00;52603.00;5006186;28;19948;-72
2023/11/18 01:43:14;;;;;;;;;;;;;;;-144.99;100.00;52560.19;5010038;28;19925;-71
2023/11/18 01:45:41;;;;;;;;;;;;;;;-144.99;100.00;52570.38;5004924;28;20387;-74
2023/11/18 01:48:09;;;;;;;;;;;;;;;-144.99;100.00;52570.38;5004274;28;19925;-71
2023/11/18 01:50:37;;;;;;;;;;;;;;;-144.99;100.00;52615.25;5004302;28;20024;-73
2023/11/18 01:53:03;;;;;;;;;;;;;;;-144.99;100.00;52558.16;5005117;28;20482;-73
2023/11/18 01:55:30;;;;;;;;;;;;;;;-144.99;100.00;52598.94;5010245;28;20046;-75
2023/11/18 01:57:58;;;;;;;;;;;;;;;-144.99;100.00;52603.00;4995747;28;19980;-74
2023/11/18 02:00:25;;;;;;;;;;;;;;;-144.99;100.00;52639.69;5016330;28;19988;-74
2023/11/18 02:02:52;;;;;;;;;;;;;;;-144.99;100.00;52609.13;5020704;28;19926;-72
2023/11/18 02:05:18;;;;;;;;;;;;;;;-144.99;100.00;52611.16;5015188;28;19984;-73
2023/11/18 02:07:46;;;;;;;;;;;;;;;-144.99;100.00;52572.44;5018812;28;19988;-75
2023/11/18 02:10:12;;;;;;;;;;;;;;;-144.99;100.00;52592.81;5013119;28;20246;-76
2023/11/18 02:12:43;;;;;;;;;;;;;;;-144.99;100.00;52572.44;5017598;28;19949;-71
2023/11/18 02:15:12;;;;;;;;;;;;;;;-144.99;100.00;52596.88;5013688;28;20088;-71
2023/11/18 02:17:39;;;;;;;;;;;;;;;-144.99;100.00;52603.00;5010131;28;20034;-71
2023/11/18 02:20:14;;;;;;;;;;;;;;;-144.99;100.00;52586.69;4999023;28;19929;-71
2023/11/18 02:22:42;;;;;;;;;;;;;;;-144.99;100.00;52578.53;5000134;28;19937;-71
2023/11/18 02:25:10;;;;;;;;;;;;;;;-144.99;100.00;52582.63;5008560;28;20007;-72
2023/11/18 02:27:38;;;;;;;;;;;;;;;-144.99;100.00;52529.63;5003964;28;20360;-72
2023/11/18 02:30:12;;;;;;;;;;;;;;;-144.99;100.00;52564.28;5000790;28;19965;-75
2023/11/18 02:32:40;;;;;;;;;;;;;;;-144.99;100.00;52605.03;4996700;28;19980;-73
2023/11/18 02:35:10;;;;;;;;;;;;;;;-144.99;100.00;52574.47;5006850;28;19973;-74
2023/11/18 02:37:38;;;;;;;;;;;;;;;-144.99;100.00;52600.97;5007203;28;19926;-73
2023/11/18 02:40:08;;;;;;;;;;;;;;;-144.99;100.00;52615.25;5009213;28;20391;-71
2023/11/18 02:42:35;;;;;;;;;;;;;;;-144.99;100.00;52603.00;5000057;28;19952;-74
2023/11/18 02:45:06;;;;;;;;;;;;;;;-144.99;100.00;52586.69;5003859;28;19925;-74
2023/11/18 02:47:33;;;;;;;;;;;;;;;-144.99;100.00;52578.53;5013143;28;19945;-74
2023/11/18 02:50:05;;;;;;;;;;;;;;;-144.99;100.00;52574.47;5004279;28;19984;-76
2023/11/18 02:52:32;;;;;;;;;;;;;;;-144.99;100.00;52566.31;5005215;28;19926;-76
2023/11/18 02:54:58;;;;;;;;;;;;;;;-144.99;100.00;52592.81;5016092;28;19990;-76
2023/11/18 02:57:25;;;;;;;;;;;;;;;-144.99;100.00;52558.16;5027762;28;19944;-70
2023/11/18 02:59:51;;;;;;;;;;;;;;;-144.99;100.00;52603.00;5026569;28;19929;-70
2023/11/18 03:02:20;;;;;;;;;;;;;;;-144.99;100.00;52566.31;5015962;28;19965;-69
2023/11/18 03:04:47;;;;;;;;;;;;;;;-144.99;100.00;52576.50;5008809;28;20311;-71
2023/11/18 03:07:13;;;;;;;;;;;;;;;-144.99;100.00;52558.16;5009812;28;20013;-72
2023/11/18 03:09:40;;;;;;;;;;;;;;;-144.99;100.00;52570.38;5012731;28;19971;-71
2023/11/18 03:12:07;;;;;;;;;;;;;;;-144.99;100.00;52582.63;5013400;28;19979;-73
2023/11/18 03:14:34;;;;;;;;;;;;;;;-144.99;100.00;52615.25;5009406;28;19953;-71
2023/11/18 03:17:01;;;;;;;;;;;;;;;-144.99;100.00;52586.69;5009415;28;19925;-71
2023/11/18 03:19:29;;;;;;;;;;;;;;;-144.99;100.00;52594.84;5013216;28;19929;-71
2023/11/18 03:21:55;;;;;;;;;;;;;;;-144.99;100.00;52566.31;5011935;28;20064;-71
2023/11/18 03:24:22;;;;;;;;;;;;;;;-144.99;100.00;52594.84;5006502;28;19926;-71
2023/11/18 03:26:49;;;;;;;;;;;;;;;-144.99;100.00;52582.63;5010066;28;19984;-72
2023/11/18 03:29:15;;;;;;;;;;;;;;;-144.99;100.00;52566.31;5011135;28;20359;-71
2023/11/18 03:31:44;;;;;;;;;;;;;;;-144.99;100.00;52582.63;5006350;28;19930;-72
2023/11/18 03:34:10;;;;;;;;;;;;;;;-144.99;100.00;52582.63;5006750;28;19992;-71
2023/11/18 03:36:38;;;;;;;;;;;;;;;-144.99;100.00;52627.47;5011275;28;19925;-71
2023/11/18 03:39:06;;;;;;;;;;;;;;;-144.99;100.00;52566.31;5006841;28;19984;-71
2023/11/18 03:41:32;;;;;;;;;;;;;;;-144.99;100.00;52554.09;5013123;28;21342;-71
2023/11/18 03:43:59;;;;;;;;;;;;;;;-144.99;100.00;52566.31;5007347;28;19973;-71
2023/11/18 03:46:25;;;;;;;;;;;;;;;-144.99;100.00;52558.16;5002636;28;19925;-71
2023/11/18 03:48:52;;;;;;;;;;;;;;;-144.99;100.00;52582.63;5010260;28;20129;-71
2023/11/18 03:51:18;;;;;;;;;;;;;;;-144.99;100.00;52586.69;5008449;28;20403;-71
2023/11/18 03:53:46;;;;;;;;;;;;;;;-144.99;100.00;52586.69;5008147;28;19929;-72
2023/11/18 03:56:18;;;;;;;;;;;;;;;-144.99;100.00;52574.47;5016183;28;19980;-77
2023/11/18 03:58:47;;;;;;;;;;;;;;;-144.99;100.00;52545.94;5014611;28;19930;-76
2023/11/18 04:01:20;;;;;;;;;;;;;;;-144.99;100.00;52578.53;5016257;28;19925;-74
2023/11/18 04:03:46;;;;;;;;;;;;;;;-144.99;100.00;52541.84;5016616;28;20427;-74
2023/11/18 04:06:13;;;;;;;;;;;;;;;-144.99;100.00;52570.38;5013980;28;19952;-76
2023/11/18 04:08:43;;;;;;;;;;;;;;;-144.99;100.00;52619.31;5006289;28;19925;-71
2023/11/18 04:11:11;;;;;;;;;;;;;;;-144.99;100.00;52603.00;5011475;28;20404;-71
2023/11/18 04:13:37;;;;;;;;;;;;;;;-144.99;100.00;52570.38;5013383;28;19925;-70
2023/11/18 04:16:04;;;;;;;;;;;;;;;-144.99;100.00;52562.25;5002640;28;19996;-71
2023/11/18 04:18:31;;;;;;;;;;;;;;;-144.99;100.00;52623.38;5010897;28;19979;-71
2023/11/18 04:20:58;;;;;;;;;;;;;;;-144.99;100.00;52598.94;5012637;28;19964;-72
2023/11/18 04:23:24;;;;;;;;;;;;;;;-144.99;100.00;52594.84;5002458;28;20013;-71
2023/11/18 04:25:51;;;;;;;;;;;;;;;-144.99;100.00;52611.16;5001560;28;20057;-72
2023/11/18 04:28:20;;;;;;;;;;;;;;;-144.99;100.00;52592.81;5005581;28;19953;-72
2023/11/18 04:30:46;;;;;;;;;;;;;;;-144.99;100.00;52594.84;5007383;28;19995;-71
2023/11/18 04:33:14;;;;;;;;;;;;;;;-144.99;100.00;52574.47;5001677;28;19929;-70
2023/11/18 04:35:40;;;;;;;;;;;;;;;-144.99;100.00;52615.25;5015718;28;19929;-74
2023/11/18 04:38:07;;;;;;;;;;;;;;;-144.99;100.00;52586.69;5015586;28;20311;-73
2023/11/18 04:40:34;;;;;;;;;;;;;;;-144.99;100.00;52562.25;5015499;28;19925;-73
2023/11/18 04:43:01;;;;;;;;;;;;;;;-144.99;100.00;52562.25;5010350;28;20523;-73
2023/11/18 04:45:30;;;;;;;;;;;;;;;-144.99;100.00;52627.47;5007794;28;19961;-72
2023/11/18 04:47:56;;;;;;;;;;;;;;;-144.99;100.00;52615.25;5011085;28;19961;-72
2023/11/18 04:50:23;;;;;;;;;;;;;;;-144.99;100.00;52572.44;5004986;28;19969;-72
2023/11/18 04:52:51;;;;;;;;;;;;;;;-144.99;100.00;52598.94;5011708;28;19925;-72
2023/11/18 04:55:18;;;;;;;;;;;;;;;-144.99;100.00;52623.38;5010847;28;19983;-72
2023/11/18 04:57:44;;;;;;;;;;;;;;;-144.99;100.00;52611.16;5004912;28;20032;-72
2023/11/18 05:00:11;;;;;;;;;;;;;;;-144.99;100.00;52590.78;5003103;28;19964;-73
2023/11/18 05:02:40;;;;;;;;;;;;;;;-144.99;100.00;52619.31;5006876;28;19948;-72
2023/11/18 05:05:07;;;;;;;;;;;;;;;-144.99;100.00;52586.69;5003782;28;19973;-72
2023/11/18 05:07:34;;;;;;;;;;;;;;;-144.99;100.00;52574.47;5001300;28;19941;-72
2023/11/18 05:10:04;;;;;;;;;;;;;;;-144.99;100.00;52619.31;4998618;28;20484;-73
2023/11/18 05:12:30;;;;;;;;;;;;;;;-144.99;100.00;52556.13;5009610;28;19936;-73
2023/11/18 05:14:57;;;;;;;;;;;;;;;-144.99;100.00;52574.47;5003845;28;19926;-73
2023/11/18 05:17:23;;;;;;;;;;;;;;;-144.99;100.00;52607.09;5006906;28;19968;-72
2023/11/18 05:19:51;;;;;;;;;;;;;;;-144.99;100.00;52578.53;5000170;28;20349;-73
2023/11/18 05:22:17;;;;;;;;;;;;;;;-144.99;100.00;52558.16;5019330;28;19933;-76
2023/11/18 05:24:45;;;;;;;;;;;;;;;-144.99;100.00;52570.38;5031314;28;19929;-75
2023/11/18 05:27:12;;;;;;;;;;;;;;;-144.99;100.00;52611.16;5031322;28;19930;-76
2023/11/18 05:29:41;;;;;;;;;;;;;;;-144.99;100.00;52619.31;5004651;28;19925;-72
2023/11/18 05:32:08;;;;;;;;;;;;;;;-144.99;100.00;52592.81;4996608;28;19929;-72
2023/11/18 05:34:35;;;;;;;;;;;;;;;-144.99;100.00;52584.66;5001666;28;19929;-69
2023/11/18 05:37:03;;;;;;;;;;;;;;;-144.99;100.00;52564.28;5004602;28;21300;-70
2023/11/18 05:39:30;;;;;;;;;;;;;;;-144.99;100.00;52611.16;5000919;28;20024;-71
2023/11/18 05:41:58;;;;;;;;;;;;;;;-144.99;100.00;52566.31;5006328;28;19926;-70
2023/11/18 05:44:30;;;;;;;;;;;;;;;-144.99;100.00;52582.63;5008887;28;19926;-70
2023/11/18 05:46:57;;;;;;;;;;;;;;;-144.99;100.00;52558.16;5009205;28;19926;-71
2023/11/18 05:49:24;;;;;;;;;;;;;;;-144.99;100.00;52594.84;5006726;28;19937;-71
2023/11/18 05:51:51;;;;;;;;;;;;;;;-144.99;100.00;52621.34;5005351;28;20409;-74
2023/11/18 05:54:19;;;;;;;;;;;;;;;-144.99;100.00;52578.53;4979539;28;20343;-74
2023/11/18 05:56:46;;;;;;;;;;;;;;;-144.99;100.00;52586.69;5001946;28;19967;-74
2023/11/18 05:59:13;;;;;;;;;;;;;;;-144.99;100.00;52582.63;4988973;28;19979;-73
2023/11/18 06:01:40;;;;;;;;;;;;;;;-144.99;100.00;52603.00;4997109;28;19949;-77
2023/11/18 06:04:08;;;;;;;;;;;;;;;-144.99;100.00;52605.03;4999848;28;19947;-77
2023/11/18 06:06:34;;;;;;;;;;;;;;;-144.99;100.00;52586.69;4992647;28;20347;-77
2023/11/18 06:09:05;;;;;;;;;;;;;;;-144.99;100.00;52550.00;5004702;28;19972;-77
2023/11/18 06:11:33;;;;;;;;;;;;;;;-144.99;100.00;52623.38;5009902;28;19936;-78
2023/11/18 06:13:59;;;;;;;;;;;;;;;-144.99;100.00;52607.09;5009224;28;19925;-77
2023/11/18 06:16:26;;;;;;;;;;;;;;;-144.99;100.00;52603.00;5001142;28;19925;-77
2023/11/18 06:18:53;;;;;;;;;;;;;;;-144.99;100.00;52623.38;5008039;28;19926;-77
2023/11/18 06:21:20;;;;;;;;;;;;;;;-144.99;100.00;52615.25;5004133;28;20001;-76
2023/11/18 06:23:47;;;;;;;;;;;;;;;-144.99;100.00;52570.38;4998994;28;20416;-76
2023/11/18 06:26:14;;;;;;;;;;;;;;;-144.99;100.00;52596.88;5013710;28;19926;-77
2023/11/18 06:28:42;;;;;;;;;;;;;;;-144.99;100.00;52592.81;5012524;28;19925;-78
2023/11/18 06:31:09;;;;;;;;;;;;;;;-144.99;100.00;52631.53;5009885;28;19960;-76
2023/11/18 06:33:39;;;;;;;;;;;;;;;-144.99;100.00;52625.44;5007040;28;19930;-72
2023/11/18 06:36:07;;;;;;;;;;;;;;;-144.99;100.00;52619.31;5004700;28;20303;-74
2023/11/18 06:38:34;;;;;;;;;;;;;;;-144.99;100.00;52617.28;4999210;28;19965;-72
2023/11/18 06:41:02;;;;;;;;;;;;;;;-144.99;100.00;52570.38;5003045;28;19926;-72
2023/11/18 06:43:41;;;;;;;;;;;;;;;-144.99;100.00;52592.81;5000773;28;19926;-72
2023/11/18 06:46:11;;;;;;;;;;;;;;;-144.99;100.00;52586.69;5008989;28;19925;-71
2023/11/18 06:48:38;;;;;;;;;;;;;;;-144.99;100.00;52603.00;5003907;28;19925;-73
2023/11/18 06:51:07;;;;;;;;;;;;;;;-144.99;100.00;52635.63;5008977;28;20292;-72
2023/11/18 06:53:34;;;;;;;;;;;;;;;-144.99;100.00;52574.47;4999562;28;19926;-73
2023/11/18 06:56:00;;;;;;;;;;;;;;;-144.99;100.00;52623.38;5000767;28;20321;-72
2023/11/18 06:58:27;;;;;;;;;;;;;;;-144.99;100.00;52603.00;5005940;28;19969;-73
2023/11/18 07:00:54;;;;;;;;;;;;;;;-144.99;100.00;52605.03;5001989;28;19988;-72
2023/11/18 07:03:22;;;;;;;;;;;;;;;-144.99;100.00;52564.28;5005456;28;19976;-71
2023/11/18 07:05:49;;;;;;;;;;;;;;;-144.99;100.00;52598.94;5002884;28;19947;-70
2023/11/18 07:08:15;;;;;;;;;;;;;;;-144.99;100.00;52596.88;5006930;28;19933;-72
2023/11/18 07:10:42;;;;;;;;;;;;;;;-144.99;100.00;52578.53;5002707;28;20386;-71
2023/11/18 07:13:08;;;;;;;;;;;;;;;-144.99;100.00;52586.69;5001064;28;20291;-71
2023/11/18 07:15:35;;;;;;;;;;;;;;;-144.99;100.00;52588.75;5005123;28;19936;-71
2023/11/18 07:18:02;;;;;;;;;;;;;;;-144.99;100.00;52566.31;5004613;28;19932;-72
2023/11/18 07:20:30;;;;;;;;;;;;;;;-144.99;100.00;52615.25;5026007;22;20383;-65
2023/11/18 07:22:56;;;;;;;;;;;;;;;-144.99;100.00;52590.78;4998558;28;19983;-65
2023/11/18 07:25:23;;;;;;;;;;;;;;;-144.99;100.00;52574.47;5017670;28;20032;-66
2023/11/18 07:27:49;;;;;;;;;;;;;;;-144.99;100.00;52615.25;5025828;28;20019;-66
2023/11/18 07:30:16;;;;;;;;;;;;;;;-144.99;100.00;52586.69;5030217;28;19961;-67
2023/11/18 07:32:42;;;;;;;;;;;;;;;-144.99;100.00;52598.94;5023166;28;19935;-67
2023/11/18 07:35:09;;;;;;;;;;;;;;;-144.99;100.00;52590.78;5024505;28;20395;-67
2023/11/18 07:37:37;;;;;;;;;;;;;;;-144.99;100.00;52543.91;5030418;28;20255;-66
2023/11/18 07:40:05;;;;;;;;;;;;;;;-144.99;100.00;52541.84;5025281;28;19958;-67
2023/11/18 07:42:34;;;;;;;;;;;;;;;-144.99;100.00;52609.13;5021992;28;19963;-67
2023/11/18 07:45:03;;;;;;;;;;;;;;;-144.99;100.00;52578.53;5024676;28;20263;-67
2023/11/18 07:47:31;;;;;;;;;;;;;;;-144.99;100.00;52635.63;5027987;28;20247;-67
2023/11/18 07:49:57;;;;;;;;;;;;;;;-144.99;100.00;52605.03;5030750;28;19932;-68
2023/11/18 07:52:24;;;;;;;;;;;;;;;-144.99;100.00;52574.47;5027046;28;19979;-70
2023/11/18 07:54:52;;;;;;;;;;;;;;;-144.99;100.00;52541.84;5029171;28;19965;-69
2023/11/18 07:57:18;;;;;;;;;;;;;;;-144.99;100.00;52582.63;5024788;28;20005;-70
2023/11/18 07:59:45;;;;;;;;;;;;;;;-144.99;100.00;52576.50;5022548;28;19932;-71
2023/11/18 08:02:14;;;;;;;;;;;;;;;-144.99;100.00;52566.31;5027004;28;20063;-71
2023/11/18 08:04:40;;;;;;;;;;;;;;;-144.99;100.00;52586.69;5026087;28;19925;-72
2023/11/18 08:07:10;;;;;;;;;;;;;;;-144.99;100.00;52574.47;5021082;28;19936;-73
2023/11/18 08:09:38;;;;;;;;;;;;;;;-144.99;100.00;52574.47;5030303;28;20379;-73
2023/11/18 08:12:09;;;;;;;;;;;;;;;-144.99;100.00;52545.94;5030844;28;19929;-73
2023/11/18 08:14:35;;;;;;;;;;;;;;;-144.99;100.00;52609.13;5020442;28;19929;-72
2023/11/18 08:17:02;;;;;;;;;;;;;;;-144.99;100.00;52562.25;5026034;28;19975;-73
2023/11/18 08:19:28;;;;;;;;;;;;;;;-144.99;100.00;52590.78;5018123;28;19965;-73
2023/11/18 08:21:55;;;;;;;;;;;;;;;-144.99;100.00;52566.31;5029423;28;20052;-72
2023/11/18 08:24:21;;;;;;;;;;;;;;;-144.99;100.00;52545.94;5031030;28;20029;-73
2023/11/18 08:26:48;;;;;;;;;;;;;;;-144.99;100.00;52586.69;5027766;28;19925;-73
2023/11/18 08:29:16;;;;;;;;;;;;;;;-144.99;100.00;52572.44;5023884;28;19926;-74
2023/11/18 08:31:44;;;;;;;;;;;;;;;-144.99;100.00;52556.13;5021591;28;19929;-73
2023/11/18 08:34:10;;;;;;;;;;;;;;;-144.99;100.00;52611.16;5023130;28;19925;-67
2023/11/18 08:36:37;;;;;;;;;;;;;;;-144.99;100.00;52611.16;5020717;28;19975;-67
2023/11/18 08:39:04;;;;;;;;;;;;;;;-144.99;100.00;52545.94;5025951;28;19929;-67
2023/11/18 08:41:31;;;;;;;;;;;;;;;-144.99;100.00;52545.94;5025144;28;20047;-67
2023/11/18 08:43:57;;;;;;;;;;;;;;;-144.99;100.00;52562.25;5021286;28;19985;-67
2023/11/18 08:46:24;;;;;;;;;;;;;;;-144.99;100.00;52586.69;5031264;28;20017;-67
2023/11/18 08:48:51;;;;;;;;;;;;;;;-144.99;100.00;52582.63;5029309;28;20442;-67
2023/11/18 08:51:17;;;;;;;;;;;;;;;-144.99;100.00;52554.09;5028844;28;19924;-66
2023/11/18 08:53:45;;;;;;;;;;;;;;;-144.99;100.00;52521.47;5020758;28;19929;-67
2023/11/18 08:56:13;;;;;;;;;;;;;;;-144.99;100.00;52523.50;5029167;28;19931;-68
2023/11/18 08:58:41;;;;;;;;;;;;;;;-144.99;100.00;52492.94;5029284;28;19973;-68
2023/11/18 09:01:13;;;;;;;;;;;;;;;-144.99;99.12;52505.16;5034863;28;19971;-68
2023/11/18 09:03:43;;;;;;;;;;;;;;;-144.99;99.31;52484.78;5030207;28;20403;-68
2023/11/18 09:06:17;;;;;;;;;;;;;;;-144.99;96.53;52537.78;5036133;28;19934;-68
2023/11/18 09:08:43;;;;;;;;;;;;;;;-144.99;96.23;52505.16;5030475;28;20295;-68
2023/11/18 09:11:11;;;;;;;;;;;;;;;-144.99;94.75;52521.47;5034198;28;19953;-69
2023/11/18 09:13:40;;;;;;;;;;;;;;;-144.99;94.88;52558.16;5022080;28;19944;-68
2023/11/18 09:16:09;;;;;;;;;;;;;;;-144.99;94.81;52558.16;5027112;28;20575;-69
2023/11/18 09:18:35;;;;;;;;;;;;;;;-144.99;94.45;52525.56;5029414;28;19929;-69
2023/11/18 09:21:05;;;;;;;;;;;;;;;-144.99;93.58;52505.16;5036063;28;19963;-69
2023/11/18 09:23:34;;;;;;;;;;;;;;;-144.99;92.95;52521.47;5027469;28;19940;-69
2023/11/18 09:26:01;;;;;;;;;;;;;;;-144.99;92.00;52492.94;5029537;28;19925;-69
2023/11/18 09:28:29;;;;;;;;;;;;;;;-144.99;89.65;52521.47;5030384;28;19965;-69
2023/11/18 09:30:57;;;;;;;;;;;;;;;-144.99;89.88;52484.78;5033142;28;20279;-68
2023/11/18 09:33:32;;;;;;;;;;;;;;;-144.99;88.30;52484.78;5028885;28;19937;-69
2023/11/18 09:35:59;;;;;;;;;;;;;;;-144.99;86.51;52452.16;5029187;28;19932;-70
2023/11/18 09:38:30;;;;;;;;;;;;;;;-144.99;83.64;52484.78;5036952;28;20206;-69
2023/11/18 09:40:57;;;;;;;;;;;;;;;-144.99;82.23;52476.63;5023118;28;19969;-70
2023/11/18 09:43:26;;;;;;;;;;;;;;;-144.99;79.19;52444.03;5020350;28;20185;-70
2023/11/18 09:45:55;;;;;;;;;;;;;;;-144.99;76.98;52439.94;5019553;28;19929;-70
2023/11/18 09:48:25;;;;;;;;;;;;;;;-144.99;74.08;52399.19;5035275;28;19925;-68
2023/11/18 09:50:52;;;;;;;;;;;;;;;-144.99;73.11;52456.25;5022909;28;20409;-69
2023/11/18 09:53:20;;;;;;;;;;;;;;;-144.99;71.94;52460.31;5022141;28;19975;-69
2023/11/18 09:55:55;;;;;;;;;;;;;;;-144.99;71.63;52466.44;4334966;28;10000722;-69
2023/11/18 09:58:24;;;;;;;;;;;;;;;-144.99;70.74;52417.53;5020298;28;19933;-69
2023/11/18 10:00:51;;;;;;;;;;;;;;;-144.99;69.91;52444.03;5026013;28;20019;-70
2023/11/18 10:03:18;;;;;;;;;;;;;;;-144.99;70.73;52427.72;5020414;28;20113;-69
2023/11/18 10:05:45;;;;;;;;;;;;;;;-144.99;71.07;52433.81;5016252;28;19983;-70
2023/11/18 10:08:16;;;;;;;;;;;;;;;-144.99;69.73;52415.47;5026064;28;19925;-69
2023/11/18 10:10:45;;;;;;;;;;;;;;;-144.99;68.93;52409.38;5025760;28;19932;-69
2023/11/18 10:13:21;;;;;;;;;;;;;;;-144.99;68.80;52399.19;5020088;28;19929;-68
2023/11/18 10:15:52;;;;;;;;;;;;;;;-144.99;68.43;52423.63;5022666;28;20097;-69
2023/11/18 10:18:22;;;;;;;;;;;;;;;-144.99;69.29;52374.72;5015856;28;19964;-69
2023/11/18 10:20:51;;;;;;;;;;;;;;;-144.99;69.53;52366.56;5022691;28;20037;-69
2023/11/18 10:23:20;;;;;;;;;;;;;;;-144.99;69.04;52354.34;5013425;28;20399;-69
2023/11/18 10:25:48;;;;;;;;;;;;;;;-144.99;68.33;52370.63;5017808;28;19933;-69
2023/11/18 10:28:27;;;;;;;;;;;;;;;-144.99;66.98;52338.03;5026333;28;19940;-69
2023/11/18 10:30:54;;;;;;;;;;;;;;;-144.99;66.99;52338.03;5019687;28;20024;-69
2023/11/18 10:33:21;;;;;;;;;;;;;;;-144.99;67.86;52338.03;5017795;28;19960;-69
2023/11/18 10:35:52;;;;;;;;;;;;;;;-144.99;68.32;52372.69;5014247;28;19933;-69
2023/11/18 10:38:19;;;;;;;;;;;;;;;-144.99;67.48;52395.09;5022346;28;19929;-68
2023/11/18 10:40:45;;;;;;;;;;;;;;;-144.99;67.12;52311.53;5020403;28;20277;-68
2023/11/18 10:43:12;;;;;;;;;;;;;;;-144.99;66.05;52293.19;5024292;28;20031;-69
2023/11/18 10:45:40;;;;;;;;;;;;;;;-144.99;65.02;52327.84;5022956;28;19930;-69
2023/11/18 10:48:07;;;;;;;;;;;;;;;-144.99;65.21;52342.09;5023304;28;19949;-69
2023/11/18 10:50:34;;;;;;;;;;;;;;;-144.99;64.69;52295.22;5023239;28;19933;-70
2023/11/18 10:53:02;;;;;;;;;;;;;;;-144.99;64.49;52323.75;5026948;28;20004;-70
2023/11/18 10:55:36;;;;;;;;;;;;;;;-144.99;66.88;52344.16;5001494;28;19932;-68
2023/11/18 10:58:04;;;;;;;;;;;;;;;-144.99;66.97;52366.56;5019958;28;20450;-69
2023/11/18 11:00:33;;;;;;;;;;;;;;;-144.99;67.16;52378.78;5026050;28;19947;-69
2023/11/18 11:03:01;;;;;;;;;;;;;;;-144.99;68.89;52427.72;5031223;28;20007;-69
2023/11/18 11:05:32;;;;;;;;;;;;;;;-144.99;69.55;52403.25;5030293;28;20559;-70
2023/11/18 11:07:59;;;;;;;;;;;;;;;-144.99;68.54;52366.56;5018298;28;19928;-69
2023/11/18 11:10:28;;;;;;;;;;;;;;;-144.99;68.07;52378.78;5024656;28;20450;-68
2023/11/18 11:12:55;;;;;;;;;;;;;;;-144.99;67.75;52370.63;5028435;28;20039;-69
2023/11/18 11:15:23;;;;;;;;;;;;;;;-144.99;66.59;52338.03;5030211;28;20371;-69
2023/11/18 11:17:55;;;;;;;;;;;;;;;-144.99;66.44;52358.41;5027118;28;20062;-69
2023/11/18 11:20:29;;;;;;;;;;;;;;;-144.99;65.71;52342.09;5026312;28;19949;-69
2023/11/18 11:23:07;;;;;;;;;;;;;;;-144.99;65.95;52366.56;5019798;28;19983;-70
2023/11/18 11:25:36;;;;;;;;;;;;;;;-144.99;67.40;52431.78;5029314;28;19929;-70
2023/11/18 11:28:10;;;;;;;;;;;;;;;-144.99;67.76;52468.47;5027632;28;19979;-69
2023/11/18 11:30:43;;;;;;;;;;;;;;;-144.99;68.71;52509.25;5026481;28;19925;-69
2023/11/18 11:33:16;;;;;;;;;;;;;;;-144.99;70.56;52497.00;5017157;28;19933;-70
2023/11/18 11:35:48;;;;;;;;;;;;;;;-144.99;71.84;52537.78;5015639;28;19930;-69
2023/11/18 11:38:16;;;;;;;;;;;;;;;-144.99;71.44;52382.88;5023019;28;19975;-69
2023/11/18 11:40:43;;;;;;;;;;;;;;;-144.99;70.96;52509.25;5029406;28;19926;-69
2023/11/18 11:43:10;;;;;;;;;;;;;;;-144.99;71.76;52539.81;5026593;28;20439;-69
2023/11/18 11:45:39;;;;;;;;;;;;;;;-144.99;74.33;52562.25;5024353;28;19969;-68
2023/11/18 11:48:19;;;;;;;;;;;;;;;-144.99;75.78;52550.00;5030011;28;20425;-69
2023/11/18 11:51:02;;;;;;;;;;;;;;;-144.99;78.38;52562.25;5022979;28;20028;-68
2023/11/18 11:53:31;;;;;;;;;;;;;;;-144.99;80.92;52590.78;5019990;28;19929;-68
2023/11/18 11:56:05;;;;;;;;;;;;;;;-144.99;82.72;52586.69;5017243;28;19979;-68
2023/11/18 11:58:32;;;;;;;;;;;;;;;-144.99;86.04;52619.31;5019833;28;19952;-68
2023/11/18 12:01:07;;;;;;;;;;;;;;;-144.99;87.37;52607.09;5029293;28;19972;-68
2023/11/18 12:03:36;;;;;;;;;;;;;;;-144.99;88.16;52562.25;5027940;28;20389;-68
2023/11/18 12:06:07;;;;;;;;;;;;;;;-144.99;88.38;52617.28;5028064;28;20521;-68
2023/11/18 12:08:36;;;;;;;;;;;;;;;-144.99;88.39;52619.31;5026487;28;19936;-68
2023/11/18 12:11:03;;;;;;;;;;;;;;;-144.99;88.55;52598.94;5014385;28;20465;-68
2023/11/18 12:13:34;;;;;;;;;;;;;;;-144.99;88.83;52598.94;5015310;28;20363;-68
2023/11/18 12:16:04;;;;;;;;;;;;;;;-144.99;88.93;52603.00;5014108;28;19979;-68
2023/11/18 12:18:31;;;;;;;;;;;;;;;-144.99;89.33;52590.78;5015125;28;19933;-68
2023/11/18 12:21:02;;;;;;;;;;;;;;;-144.99;89.57;52627.47;5019173;28;19941;-67
2023/11/18 12:23:30;;;;;;;;;;;;;;;-144.99;90.14;52582.63;5018837;28;19991;-67